sensor_id;sensor_type;location;lat;lon;timestamp;noise_LAeq;noise_LA_min;noise_LA_max;noise_LA01;noise_LA95
56099;Laerm;44276;49.534;6.378;2022-08-30T00:00:06;44.22;43.19;45.20;;
56099;Laerm;44276;49.534;6.378;2022-08-30T00:02:52;44.37;43.14;46.76;;
56099;Laerm;44276;49.534;6.378;2022-08-30T00:05:21;44.27;43.24;45.89;;
56099;Laerm;44276;49.534;6.378;2022-08-30T00:07:49;44.25;42.98;45.30;;
56099;Laerm;44276;49.534;6.378;2022-08-30T00:10:17;44.27;43.24;45.42;;
56099;Laerm;44276;49.534;6.378;2022-08-30T00:12:45;44.51;43.09;47.90;;
56099;Laerm;44276;49.534;6.378;2022-08-30T00:15:17;44.74;43.09;52.34;;
56099;Laerm;44276;49.534;6.378;2022-08-30T00:17:46;45.14;43.19;54.97;;
56099;Laerm;44276;49.534;6.378;2022-08-30T00:20:19;44.24;43.09;45.33;;
56099;Laerm;44276;49.534;6.378;2022-08-30T00:22:48;45.00;43.09;53.83;;
56099;Laerm;44276;49.534;6.378;2022-08-30T00:25:17;44.80;43.09;51.74;;
56099;Laerm;44276;49.534;6.378;2022-08-30T00:27:45;44.37;42.98;48.90;;
56099;Laerm;44276;49.534;6.378;2022-08-30T00:30:17;44.36;42.98;47.24;;
56099;Laerm;44276;49.534;6.378;2022-08-30T00:32:46;44.28;42.93;46.95;;
56099;Laerm;44276;49.534;6.378;2022-08-30T00:35:17;44.65;43.14;51.75;;
56099;Laerm;44276;49.534;6.378;2022-08-30T00:37:47;44.24;42.98;46.13;;
56099;Laerm;44276;49.534;6.378;2022-08-30T00:40:17;44.56;43.19;51.07;;
56099;Laerm;44276;49.534;6.378;2022-08-30T00:42:55;44.35;43.14;47.46;;
56099;Laerm;44276;49.534;6.378;2022-08-30T00:45:30;44.28;43.09;45.23;;
56099;Laerm;44276;49.534;6.378;2022-08-30T00:47:59;45.20;43.14;56.39;;
56099;Laerm;44276;49.534;6.378;2022-08-30T00:50:34;44.37;43.34;47.06;;
56099;Laerm;44276;49.534;6.378;2022-08-30T00:53:08;44.47;43.29;47.95;;
56099;Laerm;44276;49.534;6.378;2022-08-30T00:55:40;44.44;43.14;47.55;;
56099;Laerm;44276;49.534;6.378;2022-08-30T00:58:14;45.81;43.29;58.04;;
56099;Laerm;44276;49.534;6.378;2022-08-30T01:00:50;44.54;42.93;51.22;;
56099;Laerm;44276;49.534;6.378;2022-08-30T01:03:20;44.31;43.19;45.27;;
56099;Laerm;44276;49.534;6.378;2022-08-30T01:05:49;44.42;43.14;48.46;;
56099;Laerm;44276;49.534;6.378;2022-08-30T01:08:19;44.36;43.29;46.43;;
56099;Laerm;44276;49.534;6.378;2022-08-30T01:10:50;44.36;43.34;46.23;;
56099;Laerm;44276;49.534;6.378;2022-08-30T01:13:22;44.39;43.24;46.91;;
56099;Laerm;44276;49.534;6.378;2022-08-30T01:15:53;44.34;43.24;45.42;;
56099;Laerm;44276;49.534;6.378;2022-08-30T01:18:22;44.40;43.19;46.89;;
56099;Laerm;44276;49.534;6.378;2022-08-30T01:20:58;44.39;43.09;46.25;;
56099;Laerm;44276;49.534;6.378;2022-08-30T01:23:34;44.43;43.29;48.05;;
56099;Laerm;44276;49.534;6.378;2022-08-30T01:26:04;44.43;42.93;47.40;;
56099;Laerm;44276;49.534;6.378;2022-08-30T01:28:34;44.41;43.19;46.89;;
56099;Laerm;44276;49.534;6.378;2022-08-30T01:31:04;45.00;43.29;54.38;;
56099;Laerm;44276;49.534;6.378;2022-08-30T01:33:35;44.40;43.14;47.30;;
56099;Laerm;44276;49.534;6.378;2022-08-30T01:36:08;44.42;43.29;46.69;;
56099;Laerm;44276;49.534;6.378;2022-08-30T01:38:48;44.34;43.28;45.51;;
56099;Laerm;44276;49.534;6.378;2022-08-30T01:41:21;44.45;43.34;49.32;;
56099;Laerm;44276;49.534;6.378;2022-08-30T01:43:54;44.50;43.29;48.60;;
56099;Laerm;44276;49.534;6.378;2022-08-30T01:46:31;45.09;43.24;53.51;;
56099;Laerm;44276;49.534;6.378;2022-08-30T01:49:05;44.66;43.14;50.68;;
56099;Laerm;44276;49.534;6.378;2022-08-30T01:51:48;44.44;43.14;47.28;;
56099;Laerm;44276;49.534;6.378;2022-08-30T01:54:28;44.42;43.39;46.25;;
56099;Laerm;44276;49.534;6.378;2022-08-30T01:57:05;44.38;43.14;46.25;;
56099;Laerm;44276;49.534;6.378;2022-08-30T01:59:34;44.39;43.29;46.28;;
56099;Laerm;44276;49.534;6.378;2022-08-30T02:02:03;44.35;43.19;45.33;;
56099;Laerm;44276;49.534;6.378;2022-08-30T02:04:32;44.61;43.09;48.26;;
56099;Laerm;44276;49.534;6.378;2022-08-30T02:07:03;44.41;43.14;46.73;;
56099;Laerm;44276;49.534;6.378;2022-08-30T02:09:33;44.67;43.34;49.28;;
56099;Laerm;44276;49.534;6.378;2022-08-30T02:12:03;44.57;43.04;48.95;;
56099;Laerm;44276;49.534;6.378;2022-08-30T02:14:33;44.42;43.34;47.54;;
56099;Laerm;44276;49.534;6.378;2022-08-30T02:17:03;44.74;43.19;50.49;;
56099;Laerm;44276;49.534;6.378;2022-08-30T02:19:32;44.95;43.44;52.24;;
56099;Laerm;44276;49.534;6.378;2022-08-30T02:22:00;45.11;43.34;53.47;;
56099;Laerm;44276;49.534;6.378;2022-08-30T02:24:28;44.63;43.29;48.48;;
56099;Laerm;44276;49.534;6.378;2022-08-30T02:26:58;44.57;43.24;47.77;;
56099;Laerm;44276;49.534;6.378;2022-08-30T02:29:26;44.46;43.24;46.62;;
56099;Laerm;44276;49.534;6.378;2022-08-30T02:31:54;44.70;43.44;48.95;;
56099;Laerm;44276;49.534;6.378;2022-08-30T02:34:22;44.65;43.29;47.61;;
56099;Laerm;44276;49.534;6.378;2022-08-30T02:36:50;44.48;43.24;46.52;;
56099;Laerm;44276;49.534;6.378;2022-08-30T02:39:18;44.58;43.39;47.91;;
56099;Laerm;44276;49.534;6.378;2022-08-30T02:41:46;44.60;43.44;47.74;;
56099;Laerm;44276;49.534;6.378;2022-08-30T02:44:16;45.03;43.29;55.36;;
56099;Laerm;44276;49.534;6.378;2022-08-30T02:46:44;44.71;43.29;48.95;;
56099;Laerm;44276;49.534;6.378;2022-08-30T02:49:14;44.48;43.44;47.42;;
56099;Laerm;44276;49.534;6.378;2022-08-30T02:51:59;44.78;43.29;50.00;;
56099;Laerm;44276;49.534;6.378;2022-08-30T02:54:28;44.68;43.44;51.18;;
56099;Laerm;44276;49.534;6.378;2022-08-30T02:56:59;44.45;43.19;46.38;;
56099;Laerm;44276;49.534;6.378;2022-08-30T02:59:32;44.53;43.34;49.50;;
56099;Laerm;44276;49.534;6.378;2022-08-30T03:02:04;45.27;43.54;51.41;;
56099;Laerm;44276;49.534;6.378;2022-08-30T03:04:33;45.13;43.04;52.13;;
56099;Laerm;44276;49.534;6.378;2022-08-30T03:07:01;45.27;43.49;51.30;;
56099;Laerm;44276;49.534;6.378;2022-08-30T03:09:29;44.56;43.44;47.59;;
56099;Laerm;44276;49.534;6.378;2022-08-30T03:11:57;45.04;43.54;52.31;;
56099;Laerm;44276;49.534;6.378;2022-08-30T03:14:25;44.77;43.54;47.24;;
56099;Laerm;44276;49.534;6.378;2022-08-30T03:16:55;45.18;43.34;55.37;;
56099;Laerm;44276;49.534;6.378;2022-08-30T03:19:24;45.07;43.49;51.06;;
56099;Laerm;44276;49.534;6.378;2022-08-30T03:21:52;45.39;43.14;50.16;;
56099;Laerm;44276;49.534;6.378;2022-08-30T03:24:20;45.66;43.54;53.45;;
56099;Laerm;44276;49.534;6.378;2022-08-30T03:26:51;44.99;43.29;50.20;;
56099;Laerm;44276;49.534;6.378;2022-08-30T03:29:19;44.96;43.49;48.78;;
56099;Laerm;44276;49.534;6.378;2022-08-30T03:31:49;44.76;43.44;48.63;;
56099;Laerm;44276;49.534;6.378;2022-08-30T03:34:21;44.96;43.37;50.57;;
56099;Laerm;44276;49.534;6.378;2022-08-30T03:36:51;44.89;43.39;50.53;;
56099;Laerm;44276;49.534;6.378;2022-08-30T03:39:22;44.84;43.29;47.91;;
56099;Laerm;44276;49.534;6.378;2022-08-30T03:41:51;45.14;43.44;51.98;;
56099;Laerm;44276;49.534;6.378;2022-08-30T03:44:20;45.39;43.39;50.35;;
56099;Laerm;44276;49.534;6.378;2022-08-30T03:46:49;45.34;43.49;52.71;;
56099;Laerm;44276;49.534;6.378;2022-08-30T03:49:19;45.20;43.51;52.97;;
56099;Laerm;44276;49.534;6.378;2022-08-30T03:51:47;45.76;43.54;52.74;;
56099;Laerm;44276;49.534;6.378;2022-08-30T03:54:16;45.26;43.54;51.96;;
56099;Laerm;44276;49.534;6.378;2022-08-30T03:56:44;45.39;43.29;53.56;;
56099;Laerm;44276;49.534;6.378;2022-08-30T03:59:13;45.07;43.44;48.71;;
56099;Laerm;44276;49.534;6.378;2022-08-30T04:01:41;44.79;43.49;47.67;;
56099;Laerm;44276;49.534;6.378;2022-08-30T04:04:11;45.14;43.34;49.04;;
56099;Laerm;44276;49.534;6.378;2022-08-30T04:06:47;44.99;43.44;48.15;;
56099;Laerm;44276;49.534;6.378;2022-08-30T04:09:17;45.17;43.44;50.09;;
56099;Laerm;44276;49.534;6.378;2022-08-30T04:11:46;44.97;43.49;46.95;;
56099;Laerm;44276;49.534;6.378;2022-08-30T04:14:14;45.47;43.29;49.85;;
56099;Laerm;44276;49.534;6.378;2022-08-30T04:16:42;45.40;43.68;50.52;;
56099;Laerm;44276;49.534;6.378;2022-08-30T04:19:10;45.03;43.58;47.68;;
56099;Laerm;44276;49.534;6.378;2022-08-30T04:21:38;45.14;43.44;49.38;;
56099;Laerm;44276;49.534;6.378;2022-08-30T04:24:10;46.19;43.49;53.88;;
56099;Laerm;44276;49.534;6.378;2022-08-30T04:26:38;45.05;43.54;48.63;;
56099;Laerm;44276;49.534;6.378;2022-08-30T04:29:07;44.96;43.49;47.55;;
56099;Laerm;44276;49.534;6.378;2022-08-30T04:31:37;45.50;43.34;49.33;;
56099;Laerm;44276;49.534;6.378;2022-08-30T04:34:05;45.47;43.24;51.05;;
56099;Laerm;44276;49.534;6.378;2022-08-30T04:36:33;45.42;43.49;49.81;;
56099;Laerm;44276;49.534;6.378;2022-08-30T04:39:02;45.19;43.54;48.40;;
56099;Laerm;44276;49.534;6.378;2022-08-30T04:41:31;45.34;43.54;50.16;;
56099;Laerm;44276;49.534;6.378;2022-08-30T04:44:01;45.11;43.68;47.79;;
56099;Laerm;44276;49.534;6.378;2022-08-30T04:46:30;45.03;43.49;48.95;;
56099;Laerm;44276;49.534;6.378;2022-08-30T04:48:58;45.53;43.49;50.25;;
56099;Laerm;44276;49.534;6.378;2022-08-30T04:51:26;45.34;43.49;50.82;;
56099;Laerm;44276;49.534;6.378;2022-08-30T04:53:54;45.74;43.49;50.95;;
56099;Laerm;44276;49.534;6.378;2022-08-30T04:56:23;45.33;43.63;49.96;;
56099;Laerm;44276;49.534;6.378;2022-08-30T04:58:54;45.23;43.39;49.64;;
56099;Laerm;44276;49.534;6.378;2022-08-30T05:01:26;45.29;43.34;48.10;;
56099;Laerm;44276;49.534;6.378;2022-08-30T05:03:56;45.36;43.63;48.98;;
56099;Laerm;44276;49.534;6.378;2022-08-30T05:06:27;45.01;43.58;48.31;;
56099;Laerm;44276;49.534;6.378;2022-08-30T05:08:57;45.49;43.58;50.32;;
56099;Laerm;44276;49.534;6.378;2022-08-30T05:11:27;46.01;43.44;55.28;;
56099;Laerm;44276;49.534;6.378;2022-08-30T05:13:56;45.60;43.39;52.71;;
56099;Laerm;44276;49.534;6.378;2022-08-30T05:16:27;45.49;43.72;48.91;;
56099;Laerm;44276;49.534;6.378;2022-08-30T05:18:55;45.76;43.58;50.09;;
56099;Laerm;44276;49.534;6.378;2022-08-30T05:21:26;44.96;43.54;48.07;;
56099;Laerm;44276;49.534;6.378;2022-08-30T05:23:58;45.39;43.49;50.01;;
56099;Laerm;44276;49.534;6.378;2022-08-30T05:26:29;45.45;43.54;53.71;;
56099;Laerm;44276;49.534;6.378;2022-08-30T05:29:01;45.35;43.46;50.11;;
56099;Laerm;44276;49.534;6.378;2022-08-30T05:31:32;45.66;43.58;50.43;;
56099;Laerm;44276;49.534;6.378;2022-08-30T05:34:04;45.35;43.54;47.60;;
56099;Laerm;44276;49.534;6.378;2022-08-30T05:36:35;46.02;43.68;53.90;;
56099;Laerm;44276;49.534;6.378;2022-08-30T05:39:05;45.57;43.77;49.46;;
56099;Laerm;44276;49.534;6.378;2022-08-30T05:41:36;45.69;43.72;50.65;;
56099;Laerm;44276;49.534;6.378;2022-08-30T05:44:07;45.75;43.42;48.84;;
56099;Laerm;44276;49.534;6.378;2022-08-30T05:46:37;45.72;43.58;53.81;;
56099;Laerm;44276;49.534;6.378;2022-08-30T05:49:06;45.77;43.68;51.66;;
56099;Laerm;44276;49.534;6.378;2022-08-30T05:51:36;46.03;43.94;50.95;;
56099;Laerm;44276;49.534;6.378;2022-08-30T05:54:10;45.82;43.68;52.71;;
56099;Laerm;44276;49.534;6.378;2022-08-30T05:56:41;45.46;43.72;52.23;;
56099;Laerm;44276;49.534;6.378;2022-08-30T05:59:14;46.36;43.86;52.06;;
56099;Laerm;44276;49.534;6.378;2022-08-30T06:01:45;45.71;43.58;51.41;;
56099;Laerm;44276;49.534;6.378;2022-08-30T06:04:14;45.26;43.77;48.58;;
56099;Laerm;44276;49.534;6.378;2022-08-30T06:06:43;45.37;43.72;49.00;;
56099;Laerm;44276;49.534;6.378;2022-08-30T06:09:13;46.48;43.63;55.07;;
56099;Laerm;44276;49.534;6.378;2022-08-30T06:11:42;46.33;43.72;55.08;;
56099;Laerm;44276;49.534;6.378;2022-08-30T06:14:13;46.04;43.68;53.30;;
56099;Laerm;44276;49.534;6.378;2022-08-30T06:16:41;45.39;43.58;49.55;;
56099;Laerm;44276;49.534;6.378;2022-08-30T06:19:12;46.03;43.49;52.21;;
56099;Laerm;44276;49.534;6.378;2022-08-30T06:21:42;46.18;43.72;53.25;;
56099;Laerm;44276;49.534;6.378;2022-08-30T06:24:11;45.66;43.58;52.06;;
56099;Laerm;44276;49.534;6.378;2022-08-30T06:26:43;45.63;43.34;50.36;;
56099;Laerm;44276;49.534;6.378;2022-08-30T06:29:17;45.34;43.39;50.55;;
56099;Laerm;44276;49.534;6.378;2022-08-30T06:31:45;46.08;43.63;52.80;;
56099;Laerm;44276;49.534;6.378;2022-08-30T06:34:15;45.45;43.09;49.32;;
56099;Laerm;44276;49.534;6.378;2022-08-30T06:36:44;45.85;43.37;54.73;;
56099;Laerm;44276;49.534;6.378;2022-08-30T06:39:12;45.73;43.54;50.34;;
56099;Laerm;44276;49.534;6.378;2022-08-30T06:41:41;45.44;43.49;50.91;;
56099;Laerm;44276;49.534;6.378;2022-08-30T06:44:09;46.10;43.14;53.22;;
56099;Laerm;44276;49.534;6.378;2022-08-30T06:46:39;45.81;43.24;51.95;;
56099;Laerm;44276;49.534;6.378;2022-08-30T06:49:07;45.81;43.24;52.79;;
56099;Laerm;44276;49.534;6.378;2022-08-30T06:51:38;46.94;43.14;56.67;;
56099;Laerm;44276;49.534;6.378;2022-08-30T06:54:09;45.75;43.04;51.35;;
56099;Laerm;44276;49.534;6.378;2022-08-30T06:56:39;46.33;42.98;54.09;;
56099;Laerm;44276;49.534;6.378;2022-08-30T06:59:25;45.96;42.98;52.13;;
56099;Laerm;44276;49.534;6.378;2022-08-30T07:01:55;44.73;42.71;49.10;;
56099;Laerm;44276;49.534;6.378;2022-08-30T07:04:25;45.83;42.71;51.80;;
56099;Laerm;44276;49.534;6.378;2022-08-30T07:06:53;46.69;42.59;58.13;;
56099;Laerm;44276;49.534;6.378;2022-08-30T07:09:21;45.88;42.93;50.10;;
56099;Laerm;44276;49.534;6.378;2022-08-30T07:11:51;45.81;42.71;51.97;;
56099;Laerm;44276;49.534;6.378;2022-08-30T07:14:20;47.40;42.98;58.10;;
56099;Laerm;44276;49.534;6.378;2022-08-30T07:16:48;45.90;42.65;52.75;;
56099;Laerm;44276;49.534;6.378;2022-08-30T07:19:19;45.90;42.65;54.41;;
56099;Laerm;44276;49.534;6.378;2022-08-30T07:21:48;45.58;42.93;52.15;;
56099;Laerm;44276;49.534;6.378;2022-08-30T07:24:17;45.63;42.59;55.12;;
56099;Laerm;44276;49.534;6.378;2022-08-30T07:26:49;47.30;42.41;63.91;;
56099;Laerm;44276;49.534;6.378;2022-08-30T07:29:19;46.26;42.65;55.79;;
56099;Laerm;44276;49.534;6.378;2022-08-30T07:31:47;47.43;42.59;56.92;;
56099;Laerm;44276;49.534;6.378;2022-08-30T07:34:16;46.71;42.41;53.36;;
56099;Laerm;44276;49.534;6.378;2022-08-30T07:36:49;45.80;42.29;57.18;;
56099;Laerm;44276;49.534;6.378;2022-08-30T07:39:18;45.02;42.03;50.55;;
56099;Laerm;44276;49.534;6.378;2022-08-30T07:41:46;45.84;42.09;53.39;;
56099;Laerm;44276;49.534;6.378;2022-08-30T07:44:15;46.63;41.61;56.53;;
56099;Laerm;44276;49.534;6.378;2022-08-30T07:46:44;46.98;41.38;57.79;;
56099;Laerm;44276;49.534;6.378;2022-08-30T07:49:12;44.68;41.30;52.09;;
56099;Laerm;44276;49.534;6.378;2022-08-30T07:51:40;47.73;41.53;58.40;;
56099;Laerm;44276;49.534;6.378;2022-08-30T07:54:10;47.24;41.38;58.58;;
56099;Laerm;44276;49.534;6.378;2022-08-30T07:56:38;48.94;40.89;62.81;;
56099;Laerm;44276;49.534;6.378;2022-08-30T07:59:06;45.83;41.06;59.46;;
56099;Laerm;44276;49.534;6.378;2022-08-30T08:01:36;44.65;40.80;51.65;;
56099;Laerm;44276;49.534;6.378;2022-08-30T08:04:05;45.52;41.46;53.65;;
56099;Laerm;44276;49.534;6.378;2022-08-30T08:06:37;47.51;40.80;60.75;;
56099;Laerm;44276;49.534;6.378;2022-08-30T08:09:07;44.76;40.71;53.06;;
56099;Laerm;44276;49.534;6.378;2022-08-30T08:11:37;45.86;40.71;58.26;;
56099;Laerm;44276;49.534;6.378;2022-08-30T08:14:08;44.24;40.98;54.69;;
56099;Laerm;44276;49.534;6.378;2022-08-30T08:16:37;45.72;40.80;53.69;;
56099;Laerm;44276;49.534;6.378;2022-08-30T08:19:05;45.80;41.06;57.79;;
56099;Laerm;44276;49.534;6.378;2022-08-30T08:25:38;45.03;40.43;53.51;;
56099;Laerm;44276;49.534;6.378;2022-08-30T08:28:08;47.60;40.98;56.61;;
56099;Laerm;44276;49.534;6.378;2022-08-30T08:30:37;48.15;40.98;58.25;;
56099;Laerm;44276;49.534;6.378;2022-08-30T08:33:08;45.15;40.71;56.09;;
56099;Laerm;44276;49.534;6.378;2022-08-30T08:35:39;48.02;40.89;57.44;;
56099;Laerm;44276;49.534;6.378;2022-08-30T08:38:07;45.25;40.23;55.45;;
56099;Laerm;44276;49.534;6.378;2022-08-30T08:40:45;45.43;40.43;54.13;;
56099;Laerm;44276;49.534;6.378;2022-08-30T08:43:22;47.04;40.53;59.61;;
56099;Laerm;44276;49.534;6.378;2022-08-30T08:46:00;46.51;40.13;61.25;;
56099;Laerm;44276;49.534;6.378;2022-08-30T08:48:39;47.16;40.53;58.59;;
56099;Laerm;44276;49.534;6.378;2022-08-30T08:51:30;48.35;40.53;59.25;;
56099;Laerm;44276;49.534;6.378;2022-08-30T08:54:24;46.00;40.23;57.16;;
56099;Laerm;44276;49.534;6.378;2022-08-30T08:56:54;45.62;40.13;58.49;;
56099;Laerm;44276;49.534;6.378;2022-08-30T08:59:23;47.26;38.95;59.72;;
56099;Laerm;44276;49.534;6.378;2022-08-30T09:01:53;45.19;39.70;53.35;;
56099;Laerm;44276;49.534;6.378;2022-08-30T09:04:34;44.79;38.95;56.03;;
56099;Laerm;44276;49.534;6.378;2022-08-30T09:07:13;47.10;40.23;55.76;;
56099;Laerm;44276;49.534;6.378;2022-08-30T09:09:44;45.61;40.03;54.68;;
56099;Laerm;44276;49.534;6.378;2022-08-30T09:12:13;45.08;39.70;57.29;;
56099;Laerm;44276;49.534;6.378;2022-08-30T09:14:46;45.36;40.13;56.83;;
56099;Laerm;44276;49.534;6.378;2022-08-30T09:17:16;45.53;40.03;53.32;;
56099;Laerm;44276;49.534;6.378;2022-08-30T09:19:57;46.56;39.81;57.23;;
56099;Laerm;44276;49.534;6.378;2022-08-30T09:22:32;47.35;39.58;62.13;;
56099;Laerm;44276;49.534;6.378;2022-08-30T09:25:05;44.57;39.08;56.68;;
56099;Laerm;44276;49.534;6.378;2022-08-30T09:27:37;47.75;39.58;59.62;;
56099;Laerm;44276;49.534;6.378;2022-08-30T09:30:15;47.35;38.95;59.44;;
56099;Laerm;44276;49.534;6.378;2022-08-30T09:32:52;46.60;38.52;60.41;;
56099;Laerm;44276;49.534;6.378;2022-08-30T09:35:24;44.68;38.67;54.31;;
56099;Laerm;44276;49.534;6.378;2022-08-30T09:37:55;45.80;40.62;55.25;;
56099;Laerm;44276;49.534;6.378;2022-08-30T09:40:28;43.90;39.70;53.49;;
56099;Laerm;44276;49.534;6.378;2022-08-30T09:43:06;46.20;40.13;54.56;;
56099;Laerm;44276;49.534;6.378;2022-08-30T09:45:39;44.40;38.21;58.12;;
56099;Laerm;44276;49.534;6.378;2022-08-30T09:48:32;44.84;40.23;54.69;;
56099;Laerm;44276;49.534;6.378;2022-08-30T09:51:28;46.41;39.58;58.56;;
56099;Laerm;44276;49.534;6.378;2022-08-30T09:54:14;46.82;39.58;60.44;;
56099;Laerm;44276;49.534;6.378;2022-08-30T09:57:00;48.29;39.08;68.31;;
56099;Laerm;44276;49.534;6.378;2022-08-30T09:59:47;44.85;39.46;52.62;;
56099;Laerm;44276;49.534;6.378;2022-08-30T10:02:44;46.21;39.21;57.85;;
56099;Laerm;44276;49.534;6.378;2022-08-30T10:05:24;46.68;39.68;56.59;;
56099;Laerm;44276;49.534;6.378;2022-08-30T10:08:07;46.42;38.81;56.53;;
56099;Laerm;44276;49.534;6.378;2022-08-30T10:10:48;45.70;38.95;55.47;;
56099;Laerm;44276;49.534;6.378;2022-08-30T10:13:51;45.42;39.34;57.55;;
56099;Laerm;44276;49.534;6.378;2022-08-30T10:16:42;50.13;39.21;73.68;;
56099;Laerm;44276;49.534;6.378;2022-08-30T10:19:29;44.25;38.81;54.16;;
56099;Laerm;44276;49.534;6.378;2022-08-30T10:22:04;47.09;39.08;57.56;;
56099;Laerm;44276;49.534;6.378;2022-08-30T10:24:42;45.62;38.95;56.94;;
56099;Laerm;44276;49.534;6.378;2022-08-30T10:27:17;45.75;39.46;57.23;;
56099;Laerm;44276;49.534;6.378;2022-08-30T10:29:54;46.86;38.32;60.02;;
56099;Laerm;44276;49.534;6.378;2022-08-30T10:32:32;45.33;39.46;56.78;;
56099;Laerm;44276;49.534;6.378;2022-08-30T10:35:09;45.47;39.92;51.69;;
56099;Laerm;44276;49.534;6.378;2022-08-30T10:37:47;44.71;38.52;54.49;;
56099;Laerm;44276;49.534;6.378;2022-08-30T10:40:26;44.18;38.67;53.49;;
56099;Laerm;44276;49.534;6.378;2022-08-30T10:43:23;45.46;38.67;56.31;;
56099;Laerm;44276;49.534;6.378;2022-08-30T10:46:02;44.25;38.67;51.17;;
56099;Laerm;44276;49.534;6.378;2022-08-30T10:48:37;45.25;38.81;55.77;;
56099;Laerm;44276;49.534;6.378;2022-08-30T10:51:24;44.49;38.95;56.68;;
56099;Laerm;44276;49.534;6.378;2022-08-30T10:54:00;45.34;39.46;53.94;;
56099;Laerm;44276;49.534;6.378;2022-08-30T10:56:36;44.11;38.52;52.92;;
56099;Laerm;44276;49.534;6.378;2022-08-30T10:59:07;45.72;39.46;57.39;;
56099;Laerm;44276;49.534;6.378;2022-08-30T11:02:21;43.77;39.34;51.55;;
56099;Laerm;44276;49.534;6.378;2022-08-30T11:05:15;44.87;39.89;54.69;;
56099;Laerm;44276;49.534;6.378;2022-08-30T11:08:01;44.75;38.37;52.48;;
56099;Laerm;44276;49.534;6.378;2022-08-30T11:10:58;43.06;38.95;48.80;;
56099;Laerm;44276;49.534;6.378;2022-08-30T11:13:40;43.21;38.52;53.36;;
56099;Laerm;44276;49.534;6.378;2022-08-30T11:16:13;44.83;38.95;53.42;;
56099;Laerm;44276;49.534;6.378;2022-08-30T11:18:46;44.73;38.21;51.72;;
56099;Laerm;44276;49.534;6.378;2022-08-30T11:21:22;46.44;39.46;56.68;;
56099;Laerm;44276;49.534;6.378;2022-08-30T11:24:04;46.19;39.58;57.73;;
56099;Laerm;44276;49.534;6.378;2022-08-30T11:26:54;45.31;38.67;55.65;;
56099;Laerm;44276;49.534;6.378;2022-08-30T11:29:32;47.86;38.81;64.40;;
56099;Laerm;44276;49.534;6.378;2022-08-30T11:35:09;47.17;37.32;64.35;;
56099;Laerm;44276;49.534;6.378;2022-08-30T11:37:41;45.42;38.67;55.46;;
56099;Laerm;44276;49.534;6.378;2022-08-30T11:40:48;45.55;38.52;54.65;;
56099;Laerm;44276;49.534;6.378;2022-08-30T11:43:48;46.51;38.81;56.11;;
56099;Laerm;44276;49.534;6.378;2022-08-30T11:46:34;44.63;37.88;53.82;;
56099;Laerm;44276;49.534;6.378;2022-08-30T11:49:50;45.32;38.05;55.88;;
56099;Laerm;44276;49.534;6.378;2022-08-30T11:52:43;45.29;39.21;53.74;;
56099;Laerm;44276;49.534;6.378;2022-08-30T11:55:36;46.46;39.08;56.48;;
56099;Laerm;44276;49.534;6.378;2022-08-30T11:58:21;46.11;38.52;57.02;;
56099;Laerm;44276;49.534;6.378;2022-08-30T12:01:30;46.83;37.52;58.91;;
56099;Laerm;44276;49.534;6.378;2022-08-30T12:04:41;47.44;38.37;57.75;;
56099;Laerm;44276;49.534;6.378;2022-08-30T12:10:35;46.56;39.70;56.38;;
56099;Laerm;44276;49.534;6.378;2022-08-30T12:13:04;49.17;39.92;64.69;;
56099;Laerm;44276;49.534;6.378;2022-08-30T12:15:54;46.81;38.81;56.76;;
56099;Laerm;44276;49.534;6.378;2022-08-30T12:18:35;46.11;38.67;54.17;;
56099;Laerm;44276;49.534;6.378;2022-08-30T12:21:13;46.35;39.21;57.43;;
56099;Laerm;44276;49.534;6.378;2022-08-30T12:23:59;46.27;38.02;57.92;;
56099;Laerm;44276;49.534;6.378;2022-08-30T12:26:36;47.06;38.52;56.67;;
56099;Laerm;44276;49.534;6.378;2022-08-30T12:29:16;48.05;38.81;57.51;;
56099;Laerm;44276;49.534;6.378;2022-08-30T12:31:51;47.38;39.70;57.03;;
56099;Laerm;44276;49.534;6.378;2022-08-30T12:34:25;46.87;39.08;61.48;;
56099;Laerm;44276;49.534;6.378;2022-08-30T12:36:59;48.50;39.34;61.05;;
56099;Laerm;44276;49.534;6.378;2022-08-30T12:39:34;47.82;39.21;58.91;;
56099;Laerm;44276;49.534;6.378;2022-08-30T12:42:19;47.81;38.21;62.33;;
56099;Laerm;44276;49.534;6.378;2022-08-30T12:44:51;44.60;38.21;54.32;;
56099;Laerm;44276;49.534;6.378;2022-08-30T12:47:26;48.99;38.37;62.07;;
56099;Laerm;44276;49.534;6.378;2022-08-30T12:49:57;49.48;39.70;63.71;;
56099;Laerm;44276;49.534;6.378;2022-08-30T12:52:33;49.35;37.88;62.80;;
56099;Laerm;44276;49.534;6.378;2022-08-30T12:55:17;50.08;39.21;67.80;;
56099;Laerm;44276;49.534;6.378;2022-08-30T12:57:59;45.68;38.21;56.12;;
56099;Laerm;44276;49.534;6.378;2022-08-30T13:00:31;47.01;37.88;57.57;;
56099;Laerm;44276;49.534;6.378;2022-08-30T13:03:04;44.92;37.52;57.41;;
56099;Laerm;44276;49.534;6.378;2022-08-30T13:05:51;46.95;39.46;55.86;;
56099;Laerm;44276;49.534;6.378;2022-08-30T13:08:22;48.61;39.08;62.51;;
56099;Laerm;44276;49.534;6.378;2022-08-30T13:10:56;49.24;39.58;62.79;;
56099;Laerm;44276;49.534;6.378;2022-08-30T13:13:39;46.36;39.46;55.75;;
56099;Laerm;44276;49.534;6.378;2022-08-30T13:16:23;46.32;38.21;57.47;;
56099;Laerm;44276;49.534;6.378;2022-08-30T13:19:31;46.00;39.58;55.60;;
56099;Laerm;44276;49.534;6.378;2022-08-30T13:22:02;46.45;38.67;56.29;;
56099;Laerm;44276;49.534;6.378;2022-08-30T13:24:31;47.03;37.32;64.90;;
56099;Laerm;44276;49.534;6.378;2022-08-30T13:27:04;47.82;38.81;57.23;;
56099;Laerm;44276;49.534;6.378;2022-08-30T13:29:36;46.13;38.05;55.11;;
56099;Laerm;44276;49.534;6.378;2022-08-30T13:32:07;46.54;38.81;53.91;;
56099;Laerm;44276;49.534;6.378;2022-08-30T13:34:39;48.47;39.08;57.11;;
56099;Laerm;44276;49.534;6.378;2022-08-30T13:37:14;47.93;38.37;56.08;;
56099;Laerm;44276;49.534;6.378;2022-08-30T13:40:03;47.57;38.95;59.06;;
56099;Laerm;44276;49.534;6.378;2022-08-30T13:42:35;45.71;39.34;53.57;;
56099;Laerm;44276;49.534;6.378;2022-08-30T13:45:06;46.23;38.05;54.97;;
56099;Laerm;44276;49.534;6.378;2022-08-30T13:47:54;46.09;39.34;57.30;;
56099;Laerm;44276;49.534;6.378;2022-08-30T13:50:23;43.71;38.05;52.95;;
56099;Laerm;44276;49.534;6.378;2022-08-30T13:52:51;44.55;39.21;51.74;;
56099;Laerm;44276;49.534;6.378;2022-08-30T13:55:19;45.22;38.81;52.53;;
56099;Laerm;44276;49.534;6.378;2022-08-30T13:57:48;45.38;39.21;52.71;;
56099;Laerm;44276;49.534;6.378;2022-08-30T14:00:23;46.67;38.95;56.49;;
56099;Laerm;44276;49.534;6.378;2022-08-30T14:02:53;47.46;39.70;57.77;;
56099;Laerm;44276;49.534;6.378;2022-08-30T14:05:29;46.65;39.92;56.03;;
56099;Laerm;44276;49.534;6.378;2022-08-30T14:08:19;46.65;38.05;58.57;;
56099;Laerm;44276;49.534;6.378;2022-08-30T14:11:09;47.71;41.61;58.09;;
56099;Laerm;44276;49.534;6.378;2022-08-30T14:13:39;44.37;37.88;51.52;;
56099;Laerm;44276;49.534;6.378;2022-08-30T14:16:32;44.27;38.67;51.28;;
56099;Laerm;44276;49.534;6.378;2022-08-30T14:19:04;46.06;39.46;55.84;;
56099;Laerm;44276;49.534;6.378;2022-08-30T14:21:33;47.42;40.23;57.35;;
56099;Laerm;44276;49.534;6.378;2022-08-30T14:24:03;46.13;40.89;53.47;;
56099;Laerm;44276;49.534;6.378;2022-08-30T14:26:36;45.34;38.52;56.57;;
56099;Laerm;44276;49.534;6.378;2022-08-30T14:29:08;45.60;38.52;54.81;;
56099;Laerm;44276;49.534;6.378;2022-08-30T14:31:40;45.94;38.37;54.29;;